Lady Lola — ZCGQ7 — position and weather

sailwx.info

Track history (hours):
 
Tides and Currents Weather Stations Pressure Air Temp Water Temp Dewpoint Dewpoint Depression Visibility Wind Speed Wind Dir Waves Ship Positions

Lady Lola

Last reported at 2017-May-24 15:03 UTC. Time now 2017-May-24 19:48 UTC.
Position N 43°49' E 007°47'.

Length 63 m; draft 3.6 m.

Type: Pleasure craft. MMSI: 319713000.

Date/timePositionNaut miles runAvg speedWind from/ knotsBaromVisibWave heightAir tempDewpointWater temp
2017-May-24 15:03N 43°49' E 007°47'0 0.0
2017-May-24 14:51N 43°49' E 007°47'0 0.0
2017-May-24 13:18N 43°49' E 007°47'0 0.0
2017-May-24 12:54N 43°49' E 007°47'0 0.0
2017-May-24 12:27N 43°49' E 007°47'  
2017-May-20 13:03N 43°41' E 007°25'112.0
2017-May-20 12:58N 43°40' E 007°23'612.2
2017-May-20 12:30N 43°38' E 007°16'611.0
2017-May-20 12:00N 43°36' E 007°09'1 1.9
2017-May-20 11:30N 43°35' E 007°08'0 0.0
2017-May-20 10:52N 43°35' E 007°08'0 0.0
2017-May-20 10:22N 43°35' E 007°08'0 0.0
2017-May-20 09:58N 43°35' E 007°08'0 0.0
2017-May-20 08:34N 43°35' E 007°08'0 0.0
2017-May-20 08:19N 43°35' E 007°08'0 0.0
2017-May-20 07:52N 43°35' E 007°08'0 0.0
2017-May-20 07:28N 43°35' E 007°08'0 0.0
2017-May-20 06:58N 43°35' E 007°08'0 0.0
2017-May-20 06:28N 43°35' E 007°08'0 0.0
2017-May-20 05:58N 43°35' E 007°08'0 0.0
2017-May-20 05:22N 43°35' E 007°08'0 0.0
2017-May-20 04:43N 43°35' E 007°08'0 0.0
2017-May-20 04:16N 43°35' E 007°08'0 0.0
2017-May-20 03:49N 43°35' E 007°08'0 0.0
2017-May-20 03:07N 43°35' E 007°08'0 0.0
2017-May-20 02:52N 43°35' E 007°08'0 0.0
2017-May-20 02:22N 43°35' E 007°08'0 0.0
2017-May-20 01:43N 43°35' E 007°08'0 0.0
2017-May-20 01:28N 43°35' E 007°08'0 0.0
2017-May-20 00:55N 43°35' E 007°08'0 0.0
2017-May-19 23:22N 43°35' E 007°08'0 0.0
2017-May-19 22:58N 43°35' E 007°08'0 0.0
2017-May-19 22:16N 43°35' E 007°08'0 0.0
2017-May-19 21:58N 43°35' E 007°08'0 0.0
2017-May-19 21:22N 43°35' E 007°08'0 0.0
2017-May-19 20:58N 43°35' E 007°08'0 0.0
2017-May-19 19:22N 43°35' E 007°08'0 0.0
2017-May-19 18:16N 43°35' E 007°08'0 0.0
2017-May-19 17:55N 43°35' E 007°08'0 0.0
2017-May-19 17:25N 43°35' E 007°08'0 0.0
2017-May-19 16:58N 43°35' E 007°08'0 0.0
2017-May-19 16:28N 43°35' E 007°08'0 0.0
2017-May-19 15:52N 43°35' E 007°08'0 0.0
2017-May-19 15:28N 43°35' E 007°08'0 0.0
2017-May-19 14:43N 43°35' E 007°08'0 0.0
2017-May-19 13:52N 43°35' E 007°08'0 0.0
2017-May-19 12:46N 43°35' E 007°08'0 0.0
2017-May-19 12:16N 43°35' E 007°08'0 0.0
2017-May-19 11:58N 43°35' E 007°08'0 0.0
2017-May-19 11:28N 43°35' E 007°08'0 0.0
2017-May-19 10:58N 43°35' E 007°08'0 0.0
2017-May-19 10:28N 43°35' E 007°08'0 0.0
2017-May-19 09:52N 43°35' E 007°08'0 0.0
2017-May-19 09:22N 43°35' E 007°08'0 0.0
2017-May-19 08:40N 43°35' E 007°08'0 0.0
2017-May-19 08:17N 43°35' E 007°08'0 0.2
2017-May-19 08:00N 43°35' E 007°08'1 1.4
2017-May-19 07:30N 43°35' E 007°09'3 6.0
2017-May-19 07:00N 43°32' E 007°09'510.0
2017-May-19 06:30N 43°30' E 007°03'3 5.5
2017-May-19 06:00N 43°32' E 007°01'0 0.0
2017-May-19 05:28N 43°32' E 007°01'0 0.0
2017-May-19 04:59N 43°32' E 007°01'0 0.0
2017-May-19 04:22N 43°32' E 007°01'0 0.1
2017-May-19 03:44N 43°32' E 007°01'0 0.1
2017-May-19 03:28N 43°32' E 007°01'0 0.1
2017-May-19 02:59N 43°32' E 007°01'0 0.1
2017-May-19 02:28N 43°32' E 007°01'0 0.0
2017-May-19 01:52N 43°32' E 007°01'0 0.0
2017-May-19 01:25N 43°32' E 007°01'0 0.1
2017-May-19 00:58N 43°32' E 007°01'0 0.1
2017-May-19 00:28N 43°32' E 007°01'0 0.0
2017-May-18 23:58N 43°32' E 007°01'0 0.0
2017-May-18 23:29N 43°32' E 007°01'0 0.1
2017-May-18 22:19N 43°32' E 007°01'0 0.0
2017-May-18 21:49N 43°32' E 007°01'0 0.0
2017-May-18 17:55N 43°32' E 007°01'0 0.0
2017-May-18 17:25N 43°32' E 007°01'0 0.0
2017-May-18 16:43N 43°32' E 007°01'0 0.0
2017-May-18 16:20N 43°32' E 007°01'0 0.0
2017-May-18 15:56N 43°32' E 007°01'0 0.0
2017-May-18 14:52N 43°32' E 007°01'0 0.0
2017-May-18 14:25N 43°32' E 007°01'0 0.0
2017-May-18 13:10N 43°32' E 007°01'0 0.0
2017-May-18 12:55N 43°32' E 007°01'0 0.0
2017-May-18 12:10N 43°32' E 007°01'0 0.0
2017-May-18 11:49N 43°32' E 007°01'0 0.0
2017-May-18 11:19N 43°32' E 007°01'0 0.0
2017-May-18 10:58N 43°32' E 007°01'0 0.0
2017-May-18 10:25N 43°32' E 007°01'0 0.0
2017-May-18 09:58N 43°32' E 007°01'0 0.0
2017-May-18 09:25N 43°32' E 007°01'0 0.0
2017-May-18 08:55N 43°32' E 007°01'0 0.0
2017-May-18 08:25N 43°32' E 007°01'0 0.1
2017-May-18 07:58N 43°32' E 007°01'0 0.1
2017-May-18 07:25N 43°32' E 007°01'0 0.0
2017-May-18 06:49N 43°32' E 007°01'0 0.0
2017-May-18 06:25N 43°32' E 007°01'0 0.0
2017-May-18 05:58N 43°32' E 007°01'0 0.0
2017-May-18 05:13N 43°32' E 007°01'0 0.0
2017-May-18 04:58N 43°32' E 007°01'0 0.1
2017-May-18 04:25N 43°32' E 007°01'0 0.0
2017-May-18 03:37N 43°32' E 007°01'0 0.0
2017-May-18 03:13N 43°32' E 007°01'0 0.0
2017-May-18 02:46N 43°32' E 007°01'0 0.0
2017-May-18 02:28N 43°32' E 007°01'0 0.1
2017-May-18 01:55N 43°32' E 007°01'0 0.0
2017-May-18 01:28N 43°32' E 007°01'0 0.0
2017-May-18 00:58N 43°32' E 007°01'0 0.0
2017-May-18 00:07N 43°32' E 007°01'0 0.0
2017-May-17 23:49N 43°32' E 007°01'0 0.0
2017-May-17 23:28N 43°32' E 007°01'0 0.0
2017-May-17 22:55N 43°32' E 007°01'0 0.0
2017-May-17 22:19N 43°32' E 007°01'0 0.0
2017-May-17 21:52N 43°32' E 007°01'0 0.0
2017-May-17 21:28N 43°32' E 007°01'0 0.0
2017-May-17 20:58N 43°32' E 007°01'0 0.0
2017-May-17 20:22N 43°32' E 007°01'0 0.0
2017-May-17 19:55N 43°32' E 007°01'0 0.0
2017-May-17 19:25N 43°32' E 007°01'0 0.0
2017-May-17 18:07N 43°32' E 007°01'0 0.0
2017-May-17 17:52N 43°32' E 007°01'0 0.0
2017-May-17 17:10N 43°32' E 007°01'0 0.1
2017-May-17 16:52N 43°32' E 007°01'0 0.0
2017-May-17 16:28N 43°32' E 007°01'0 0.0
2017-May-17 15:58N 43°32' E 007°01'0 0.0
2017-May-17 15:16N 43°32' E 007°01'0 0.0
2017-May-17 14:43N 43°32' E 007°01'0 0.0
2017-May-17 13:55N 43°32' E 007°01'0 0.0
2017-May-17 13:01N 43°32' E 007°01'0 0.0
2017-May-17 12:31N 43°32' E 007°01'0 0.1
2017-May-17 12:22N 43°32' E 007°01'0 0.0
2017-May-17 11:49N 43°32' E 007°01'0 0.0
2017-May-17 11:10N 43°32' E 007°01'0 0.0
2017-May-17 10:30N 43°32' E 007°01'0 0.6
2017-May-17 10:01N 43°32' E 007°01'6 9.0
2017-May-17 09:19N 43°26' E 006°57'1 0.0
2017-May-16 08:08N 43°27' E 006°58'212.3
2017-May-16 07:56N 43°28' E 007°01'512.3
2017-May-16 07:30N 43°31' E 007°07'612.4
2017-May-16 07:00N 43°35' E 007°14'612.3
2017-May-16 06:30N 43°40' E 007°20'  
Track history (hours):
 
Tides and Currents Weather Stations Pressure Air Temp Water Temp Dewpoint Dewpoint Depression Visibility Wind Speed Wind Dir Waves Ship Positions

Lady Lola

Last reported at 2017-May-24 15:03 UTC. Time now 2017-May-24 19:48 UTC.
Position N 43°49' E 007°47'.

Length 63 m; draft 3.6 m.

Type: Pleasure craft. MMSI: 319713000.

Date/timePositionNaut miles runAvg speedWind from/ knotsBaromVisibWave heightAir tempDewpointWater temp
2017-May-24 15:03N 43°49' E 007°47'0 0.0
2017-May-24 14:51N 43°49' E 007°47'0 0.0
2017-May-24 13:18N 43°49' E 007°47'0 0.0
2017-May-24 12:54N 43°49' E 007°47'0 0.0
2017-May-24 12:27N 43°49' E 007°47'  
2017-May-20 13:03N 43°41' E 007°25'112.0
2017-May-20 12:58N 43°40' E 007°23'612.2
2017-May-20 12:30N 43°38' E 007°16'611.0
2017-May-20 12:00N 43°36' E 007°09'1 1.9
2017-May-20 11:30N 43°35' E 007°08'0 0.0
2017-May-20 10:52N 43°35' E 007°08'0 0.0
2017-May-20 10:22N 43°35' E 007°08'0 0.0
2017-May-20 09:58N 43°35' E 007°08'0 0.0
2017-May-20 08:34N 43°35' E 007°08'0 0.0
2017-May-20 08:19N 43°35' E 007°08'0 0.0
2017-May-20 07:52N 43°35' E 007°08'0 0.0
2017-May-20 07:28N 43°35' E 007°08'0 0.0
2017-May-20 06:58N 43°35' E 007°08'0 0.0
2017-May-20 06:28N 43°35' E 007°08'0 0.0
2017-May-20 05:58N 43°35' E 007°08'0 0.0
2017-May-20 05:22N 43°35' E 007°08'0 0.0
2017-May-20 04:43N 43°35' E 007°08'0 0.0
2017-May-20 04:16N 43°35' E 007°08'0 0.0
2017-May-20 03:49N 43°35' E 007°08'0 0.0
2017-May-20 03:07N 43°35' E 007°08'0 0.0
2017-May-20 02:52N 43°35' E 007°08'0 0.0
2017-May-20 02:22N 43°35' E 007°08'0 0.0
2017-May-20 01:43N 43°35' E 007°08'0 0.0
2017-May-20 01:28N 43°35' E 007°08'0 0.0
2017-May-20 00:55N 43°35' E 007°08'0 0.0
2017-May-19 23:22N 43°35' E 007°08'0 0.0
2017-May-19 22:58N 43°35' E 007°08'0 0.0
2017-May-19 22:16N 43°35' E 007°08'0 0.0
2017-May-19 21:58N 43°35' E 007°08'0 0.0
2017-May-19 21:22N 43°35' E 007°08'0 0.0
2017-May-19 20:58N 43°35' E 007°08'0 0.0
2017-May-19 19:22N 43°35' E 007°08'0 0.0
2017-May-19 18:16N 43°35' E 007°08'0 0.0
2017-May-19 17:55N 43°35' E 007°08'0 0.0
2017-May-19 17:25N 43°35' E 007°08'0 0.0
2017-May-19 16:58N 43°35' E 007°08'0 0.0
2017-May-19 16:28N 43°35' E 007°08'0 0.0
2017-May-19 15:52N 43°35' E 007°08'0 0.0
2017-May-19 15:28N 43°35' E 007°08'0 0.0
2017-May-19 14:43N 43°35' E 007°08'0 0.0
2017-May-19 13:52N 43°35' E 007°08'0 0.0
2017-May-19 12:46N 43°35' E 007°08'0 0.0
2017-May-19 12:16N 43°35' E 007°08'0 0.0
2017-May-19 11:58N 43°35' E 007°08'0 0.0
2017-May-19 11:28N 43°35' E 007°08'0 0.0
2017-May-19 10:58N 43°35' E 007°08'0 0.0
2017-May-19 10:28N 43°35' E 007°08'0 0.0
2017-May-19 09:52N 43°35' E 007°08'0 0.0
2017-May-19 09:22N 43°35' E 007°08'0 0.0
2017-May-19 08:40N 43°35' E 007°08'0 0.0
2017-May-19 08:17N 43°35' E 007°08'0 0.2
2017-May-19 08:00N 43°35' E 007°08'1 1.4
2017-May-19 07:30N 43°35' E 007°09'3 6.0
2017-May-19 07:00N 43°32' E 007°09'510.0
2017-May-19 06:30N 43°30' E 007°03'3 5.5
2017-May-19 06:00N 43°32' E 007°01'0 0.0
2017-May-19 05:28N 43°32' E 007°01'0 0.0
2017-May-19 04:59N 43°32' E 007°01'0 0.0
2017-May-19 04:22N 43°32' E 007°01'0 0.1
2017-May-19 03:44N 43°32' E 007°01'0 0.1
2017-May-19 03:28N 43°32' E 007°01'0 0.1
2017-May-19 02:59N 43°32' E 007°01'0 0.1
2017-May-19 02:28N 43°32' E 007°01'0 0.0
2017-May-19 01:52N 43°32' E 007°01'0 0.0
2017-May-19 01:25N 43°32' E 007°01'0 0.1
2017-May-19 00:58N 43°32' E 007°01'0 0.1
2017-May-19 00:28N 43°32' E 007°01'0 0.0
2017-May-18 23:58N 43°32' E 007°01'0 0.0
2017-May-18 23:29N 43°32' E 007°01'0 0.1
2017-May-18 22:19N 43°32' E 007°01'0 0.0
2017-May-18 21:49N 43°32' E 007°01'0 0.0
2017-May-18 17:55N 43°32' E 007°01'0 0.0
2017-May-18 17:25N 43°32' E 007°01'0 0.0
2017-May-18 16:43N 43°32' E 007°01'0 0.0
2017-May-18 16:20N 43°32' E 007°01'0 0.0
2017-May-18 15:56N 43°32' E 007°01'0 0.0
2017-May-18 14:52N 43°32' E 007°01'0 0.0
2017-May-18 14:25N 43°32' E 007°01'0 0.0
2017-May-18 13:10N 43°32' E 007°01'0 0.0
2017-May-18 12:55N 43°32' E 007°01'0 0.0
2017-May-18 12:10N 43°32' E 007°01'0 0.0
2017-May-18 11:49N 43°32' E 007°01'0 0.0
2017-May-18 11:19N 43°32' E 007°01'0 0.0
2017-May-18 10:58N 43°32' E 007°01'0 0.0
2017-May-18 10:25N 43°32' E 007°01'0 0.0
2017-May-18 09:58N 43°32' E 007°01'0 0.0
2017-May-18 09:25N 43°32' E 007°01'0 0.0
2017-May-18 08:55N 43°32' E 007°01'0 0.0
2017-May-18 08:25N 43°32' E 007°01'0 0.1
2017-May-18 07:58N 43°32' E 007°01'0 0.1
2017-May-18 07:25N 43°32' E 007°01'0 0.0
2017-May-18 06:49N 43°32' E 007°01'0 0.0
2017-May-18 06:25N 43°32' E 007°01'0 0.0
2017-May-18 05:58N 43°32' E 007°01'0 0.0
2017-May-18 05:13N 43°32' E 007°01'0 0.0
2017-May-18 04:58N 43°32' E 007°01'0 0.1
2017-May-18 04:25N 43°32' E 007°01'0 0.0
2017-May-18 03:37N 43°32' E 007°01'0 0.0
2017-May-18 03:13N 43°32' E 007°01'0 0.0
2017-May-18 02:46N 43°32' E 007°01'0 0.0
2017-May-18 02:28N 43°32' E 007°01'0 0.1
2017-May-18 01:55N 43°32' E 007°01'0 0.0
2017-May-18 01:28N 43°32' E 007°01'0 0.0
2017-May-18 00:58N 43°32' E 007°01'0 0.0
2017-May-18 00:07N 43°32' E 007°01'0 0.0
2017-May-17 23:49N 43°32' E 007°01'0 0.0
2017-May-17 23:28N 43°32' E 007°01'0 0.0
2017-May-17 22:55N 43°32' E 007°01'0 0.0
2017-May-17 22:19N 43°32' E 007°01'0 0.0
2017-May-17 21:52N 43°32' E 007°01'0 0.0
2017-May-17 21:28N 43°32' E 007°01'0 0.0
2017-May-17 20:58N 43°32' E 007°01'0 0.0
2017-May-17 20:22N 43°32' E 007°01'0 0.0
2017-May-17 19:55N 43°32' E 007°01'0 0.0
2017-May-17 19:25N 43°32' E 007°01'0 0.0
2017-May-17 18:07N 43°32' E 007°01'0 0.0
2017-May-17 17:52N 43°32' E 007°01'0 0.0
2017-May-17 17:10N 43°32' E 007°01'0 0.1
2017-May-17 16:52N 43°32' E 007°01'0 0.0
2017-May-17 16:28N 43°32' E 007°01'0 0.0
2017-May-17 15:58N 43°32' E 007°01'0 0.0
2017-May-17 15:16N 43°32' E 007°01'0 0.0
2017-May-17 14:43N 43°32' E 007°01'0 0.0
2017-May-17 13:55N 43°32' E 007°01'0 0.0
2017-May-17 13:01N 43°32' E 007°01'0 0.0
2017-May-17 12:31N 43°32' E 007°01'0 0.1
2017-May-17 12:22N 43°32' E 007°01'0 0.0
2017-May-17 11:49N 43°32' E 007°01'0 0.0
2017-May-17 11:10N 43°32' E 007°01'0 0.0
2017-May-17 10:30N 43°32' E 007°01'0 0.6
2017-May-17 10:01N 43°32' E 007°01'6 9.0
2017-May-17 09:19N 43°26' E 006°57'1 0.0
2017-May-16 08:08N 43°27' E 006°58'212.3
2017-May-16 07:56N 43°28' E 007°01'512.3
2017-May-16 07:30N 43°31' E 007°07'612.4
2017-May-16 07:00N 43°35' E 007°14'612.3
2017-May-16 06:30N 43°40' E 007°20'  

Dump ship's entire track history